sensor_id;sensor_type;location;lat;lon;timestamp;temperature;humidity
13697;DHT22;6920;50.080;8.226;2023-11-19T00:01:09;8.50;99.90
13697;DHT22;6920;50.080;8.226;2023-11-19T00:03:39;8.40;99.90
13697;DHT22;6920;50.080;8.226;2023-11-19T00:06:08;8.50;99.90
13697;DHT22;6920;50.080;8.226;2023-11-19T00:08:41;8.40;99.90
13697;DHT22;6920;50.080;8.226;2023-11-19T00:11:11;8.50;99.90
13697;DHT22;6920;50.080;8.226;2023-11-19T00:13:43;8.50;99.90
13697;DHT22;6920;50.080;8.226;2023-11-19T00:16:12;8.50;99.90
13697;DHT22;6920;50.080;8.226;2023-11-19T00:18:39;8.60;99.90
13697;DHT22;6920;50.080;8.226;2023-11-19T00:21:09;8.60;99.90
13697;DHT22;6920;50.080;8.226;2023-11-19T00:23:39;8.60;99.90
13697;DHT22;6920;50.080;8.226;2023-11-19T00:26:11;8.60;99.90
13697;DHT22;6920;50.080;8.226;2023-11-19T00:28:42;8.60;99.90
13697;DHT22;6920;50.080;8.226;2023-11-19T00:31:11;8.60;99.90
13697;DHT22;6920;50.080;8.226;2023-11-19T00:33:38;8.70;99.90
13697;DHT22;6920;50.080;8.226;2023-11-19T00:36:06;8.70;99.90
13697;DHT22;6920;50.080;8.226;2023-11-19T00:38:35;8.60;99.90
13697;DHT22;6920;50.080;8.226;2023-11-19T00:41:17;8.60;99.90
13697;DHT22;6920;50.080;8.226;2023-11-19T00:43:46;9.90;99.90
13697;DHT22;6920;50.080;8.226;2023-11-19T00:46:18;8.50;99.90
13697;DHT22;6920;50.080;8.226;2023-11-19T00:48:46;8.60;99.90
13697;DHT22;6920;50.080;8.226;2023-11-19T00:51:16;8.60;99.90
13697;DHT22;6920;50.080;8.226;2023-11-19T00:53:47;8.70;99.90
13697;DHT22;6920;50.080;8.226;2023-11-19T00:56:17;8.70;99.90
13697;DHT22;6920;50.080;8.226;2023-11-19T00:58:45;8.70;99.90
13697;DHT22;6920;50.080;8.226;2023-11-19T01:01:13;8.60;99.90
13697;DHT22;6920;50.080;8.226;2023-11-19T01:03:40;8.60;99.90
13697;DHT22;6920;50.080;8.226;2023-11-19T01:06:09;8.60;99.90
13697;DHT22;6920;50.080;8.226;2023-11-19T01:11:04;8.60;99.90
13697;DHT22;6920;50.080;8.226;2023-11-19T01:13:34;8.70;99.90
13697;DHT22;6920;50.080;8.226;2023-11-19T01:16:01;8.70;99.90
13697;DHT22;6920;50.080;8.226;2023-11-19T01:20:56;8.70;99.90
13697;DHT22;6920;50.080;8.226;2023-11-19T01:30:52;8.70;99.90
13697;DHT22;6920;50.080;8.226;2023-11-19T01:40:56;8.80;99.90
13697;DHT22;6920;50.080;8.226;2023-11-19T01:46:05;8.90;99.90
13697;DHT22;6920;50.080;8.226;2023-11-19T01:48:34;8.90;99.90
13697;DHT22;6920;50.080;8.226;2023-11-19T01:51:03;8.90;99.90
13697;DHT22;6920;50.080;8.226;2023-11-19T01:53:31;8.90;99.90
13697;DHT22;6920;50.080;8.226;2023-11-19T01:56:00;8.90;99.90
13697;DHT22;6920;50.080;8.226;2023-11-19T01:58:29;8.90;99.90
13697;DHT22;6920;50.080;8.226;2023-11-19T02:08:23;8.90;99.90
13697;DHT22;6920;50.080;8.226;2023-11-19T02:18:20;9.00;99.90
13697;DHT22;6920;50.080;8.226;2023-11-19T02:20:49;9.00;99.90
13697;DHT22;6920;50.080;8.226;2023-11-19T02:23:18;14.20;99.90
13697;DHT22;6920;50.080;8.226;2023-11-19T02:25:51;8.90;99.90
13697;DHT22;6920;50.080;8.226;2023-11-19T02:28:23;9.30;99.90
13697;DHT22;6920;50.080;8.226;2023-11-19T02:33:19;8.90;99.90
13697;DHT22;6920;50.080;8.226;2023-11-19T02:48:05;9.10;99.90
13697;DHT22;6920;50.080;8.226;2023-11-19T02:50:34;9.10;99.90
13697;DHT22;6920;50.080;8.226;2023-11-19T02:55:30;9.10;99.90
13697;DHT22;6920;50.080;8.226;2023-11-19T03:00:39;9.10;99.90
13697;DHT22;6920;50.080;8.226;2023-11-19T03:03:14;9.20;99.90
13697;DHT22;6920;50.080;8.226;2023-11-19T03:05:46;9.10;99.90
13697;DHT22;6920;50.080;8.226;2023-11-19T03:08:14;9.10;99.90
13697;DHT22;6920;50.080;8.226;2023-11-19T03:13:12;9.20;99.90
13697;DHT22;6920;50.080;8.226;2023-11-19T03:15:42;9.10;99.90
13697;DHT22;6920;50.080;8.226;2023-11-19T03:18:09;9.10;99.90
13697;DHT22;6920;50.080;8.226;2023-11-19T03:35:30;9.20;99.90
13697;DHT22;6920;50.080;8.226;2023-11-19T03:37:58;9.20;99.90
13697;DHT22;6920;50.080;8.226;2023-11-19T03:40:27;9.30;99.90
13697;DHT22;6920;50.080;8.226;2023-11-19T03:42:56;9.20;99.90
13697;DHT22;6920;50.080;8.226;2023-11-19T03:45:23;9.20;99.90
13697;DHT22;6920;50.080;8.226;2023-11-19T03:52:47;9.20;99.90
13697;DHT22;6920;50.080;8.226;2023-11-19T03:55:14;9.20;99.90
13697;DHT22;6920;50.080;8.226;2023-11-19T04:02:39;9.30;99.90
13697;DHT22;6920;50.080;8.226;2023-11-19T04:05:07;9.20;99.90
13697;DHT22;6920;50.080;8.226;2023-11-19T04:10:05;9.30;99.90
13697;DHT22;6920;50.080;8.226;2023-11-19T04:19:54;9.30;99.90
13697;DHT22;6920;50.080;8.226;2023-11-19T04:24:50;9.30;99.90
13697;DHT22;6920;50.080;8.226;2023-11-19T04:29:45;9.40;99.90
13697;DHT22;6920;50.080;8.226;2023-11-19T04:39:36;9.30;99.90
13697;DHT22;6920;50.080;8.226;2023-11-19T04:49:29;9.40;99.90
13697;DHT22;6920;50.080;8.226;2023-11-19T05:09:12;9.40;99.90
13697;DHT22;6920;50.080;8.226;2023-11-19T05:33:55;9.40;99.90
13697;DHT22;6920;50.080;8.226;2023-11-19T05:53:36;9.50;99.90
13697;DHT22;6920;50.080;8.226;2023-11-19T05:56:04;9.50;99.90
13697;DHT22;6920;50.080;8.226;2023-11-19T06:08:33;9.60;99.90
13697;DHT22;6920;50.080;8.226;2023-11-19T06:28:16;9.70;99.90
13697;DHT22;6920;50.080;8.226;2023-11-19T06:30:43;9.70;99.90
13697;DHT22;6920;50.080;8.226;2023-11-19T06:38:10;9.70;99.90
13697;DHT22;6920;50.080;8.226;2023-11-19T06:40:40;9.80;99.90
13697;DHT22;6920;50.080;8.226;2023-11-19T06:45:39;9.80;99.90
13697;DHT22;6920;50.080;8.226;2023-11-19T07:00:36;9.80;99.90
13697;DHT22;6920;50.080;8.226;2023-11-19T07:05:36;9.80;99.90
13697;DHT22;6920;50.080;8.226;2023-11-19T07:08:05;10.40;99.90
13697;DHT22;6920;50.080;8.226;2023-11-19T07:35:17;10.10;99.90
13697;DHT22;6920;50.080;8.226;2023-11-19T07:37:44;10.00;99.90
13697;DHT22;6920;50.080;8.226;2023-11-19T07:40:13;10.10;99.90
13697;DHT22;6920;50.080;8.226;2023-11-19T07:45:09;10.00;99.90
13697;DHT22;6920;50.080;8.226;2023-11-19T07:52:34;10.40;99.90
13697;DHT22;6920;50.080;8.226;2023-11-19T07:57:29;10.50;99.90
13697;DHT22;6920;50.080;8.226;2023-11-19T08:09:51;11.10;99.90
13697;DHT22;6920;50.080;8.226;2023-11-19T08:12:19;10.90;99.90
13697;DHT22;6920;50.080;8.226;2023-11-19T08:27:08;11.10;99.90
13697;DHT22;6920;50.080;8.226;2023-11-19T08:32:04;11.30;99.90
13697;DHT22;6920;50.080;8.226;2023-11-19T08:44:25;13.30;99.90
13697;DHT22;6920;50.080;8.226;2023-11-19T09:19:00;12.30;99.90
13697;DHT22;6920;50.080;8.226;2023-11-19T09:31:21;12.60;99.90
13697;DHT22;6920;50.080;8.226;2023-11-19T09:33:49;12.60;99.90
13697;DHT22;6920;50.080;8.226;2023-11-19T09:38:49;10.30;99.90
13697;DHT22;6920;50.080;8.226;2023-11-19T09:46:15;12.80;99.90
13697;DHT22;6920;50.080;8.226;2023-11-19T09:51:11;12.90;99.90
13697;DHT22;6920;50.080;8.226;2023-11-19T09:53:41;12.90;99.90
13697;DHT22;6920;50.080;8.226;2023-11-19T09:56:10;12.90;99.90
13697;DHT22;6920;50.080;8.226;2023-11-19T10:03:39;12.50;99.90
13697;DHT22;6920;50.080;8.226;2023-11-19T10:06:10;13.10;99.90
13697;DHT22;6920;50.080;8.226;2023-11-19T10:08:41;13.10;99.90
13697;DHT22;6920;50.080;8.226;2023-11-19T10:11:11;14.10;99.90
13697;DHT22;6920;50.080;8.226;2023-11-19T10:18:43;13.40;99.90
13697;DHT22;6920;50.080;8.226;2023-11-19T10:21:13;13.30;99.90
13697;DHT22;6920;50.080;8.226;2023-11-19T10:23:52;13.40;99.90
13697;DHT22;6920;50.080;8.226;2023-11-19T10:26:20;13.40;99.90
13697;DHT22;6920;50.080;8.226;2023-11-19T10:31:21;13.40;99.90
13697;DHT22;6920;50.080;8.226;2023-11-19T10:33:52;13.60;99.90
13697;DHT22;6920;50.080;8.226;2023-11-19T10:38:57;15.50;99.90
13697;DHT22;6920;50.080;8.226;2023-11-19T10:41:28;14.50;99.90
13697;DHT22;6920;50.080;8.226;2023-11-19T10:43:56;14.70;99.90
13697;DHT22;6920;50.080;8.226;2023-11-19T10:46:36;15.00;99.90
13697;DHT22;6920;50.080;8.226;2023-11-19T10:54:03;15.50;99.90
13697;DHT22;6920;50.080;8.226;2023-11-19T11:01:35;14.90;99.90
13697;DHT22;6920;50.080;8.226;2023-11-19T11:04:06;14.80;99.90
13697;DHT22;6920;50.080;8.226;2023-11-19T11:06:38;14.60;99.90
13697;DHT22;6920;50.080;8.226;2023-11-19T11:09:09;14.50;99.90
13697;DHT22;6920;50.080;8.226;2023-11-19T11:11:40;14.50;99.90
13697;DHT22;6920;50.080;8.226;2023-11-19T11:14:12;14.40;99.90
13697;DHT22;6920;50.080;8.226;2023-11-19T11:16:43;14.60;99.90
13697;DHT22;6920;50.080;8.226;2023-11-19T11:21:41;15.00;99.90
13697;DHT22;6920;50.080;8.226;2023-11-19T11:24:25;14.90;99.90
13697;DHT22;6920;50.080;8.226;2023-11-19T11:27:22;14.90;99.90
13697;DHT22;6920;50.080;8.226;2023-11-19T11:29:59;14.80;99.90
13697;DHT22;6920;50.080;8.226;2023-11-19T11:32:33;14.70;99.90
13697;DHT22;6920;50.080;8.226;2023-11-19T11:35:27;14.50;99.90
13697;DHT22;6920;50.080;8.226;2023-11-19T11:38:03;14.50;99.90
13697;DHT22;6920;50.080;8.226;2023-11-19T11:40:33;14.70;99.90
13697;DHT22;6920;50.080;8.226;2023-11-19T11:45:49;15.10;99.90
13697;DHT22;6920;50.080;8.226;2023-11-19T11:48:19;15.30;99.90
13697;DHT22;6920;50.080;8.226;2023-11-19T11:50:54;15.10;99.90
13697;DHT22;6920;50.080;8.226;2023-11-19T11:55:59;15.10;99.90
13697;DHT22;6920;50.080;8.226;2023-11-19T11:58:34;15.10;99.90
13697;DHT22;6920;50.080;8.226;2023-11-19T12:03:40;11.50;99.90
13697;DHT22;6920;50.080;8.226;2023-11-19T12:08:44;15.10;99.90
13697;DHT22;6920;50.080;8.226;2023-11-19T12:16:29;15.50;99.90
13697;DHT22;6920;50.080;8.226;2023-11-19T12:19:04;16.70;99.90
13697;DHT22;6920;50.080;8.226;2023-11-19T12:24:11;15.60;99.90
13697;DHT22;6920;50.080;8.226;2023-11-19T12:30:12;15.60;99.90
13697;DHT22;6920;50.080;8.226;2023-11-19T12:32:56;15.50;99.90
13697;DHT22;6920;50.080;8.226;2023-11-19T12:35:27;15.20;99.90
13697;DHT22;6920;50.080;8.226;2023-11-19T12:38:07;15.00;99.90
13697;DHT22;6920;50.080;8.226;2023-11-19T12:40:35;15.10;99.90
13697;DHT22;6920;50.080;8.226;2023-11-19T12:43:02;15.10;99.90
13697;DHT22;6920;50.080;8.226;2023-11-19T12:45:37;14.90;99.90
13697;DHT22;6920;50.080;8.226;2023-11-19T12:48:07;15.00;99.90
13697;DHT22;6920;50.080;8.226;2023-11-19T12:50:54;15.10;99.90
13697;DHT22;6920;50.080;8.226;2023-11-19T12:53:25;14.70;99.90
13697;DHT22;6920;50.080;8.226;2023-11-19T12:56:08;15.10;99.90
13697;DHT22;6920;50.080;8.226;2023-11-19T12:58:42;15.20;99.90
13697;DHT22;6920;50.080;8.226;2023-11-19T13:01:16;14.80;99.90
13697;DHT22;6920;50.080;8.226;2023-11-19T13:03:50;14.70;99.90
13697;DHT22;6920;50.080;8.226;2023-11-19T13:06:18;14.50;99.90
13697;DHT22;6920;50.080;8.226;2023-11-19T13:08:50;14.50;99.90
13697;DHT22;6920;50.080;8.226;2023-11-19T13:11:40;14.30;99.90
13697;DHT22;6920;50.080;8.226;2023-11-19T13:14:08;14.40;99.90
13697;DHT22;6920;50.080;8.226;2023-11-19T13:16:40;14.40;99.90
13697;DHT22;6920;50.080;8.226;2023-11-19T13:19:09;14.60;99.90
13697;DHT22;6920;50.080;8.226;2023-11-19T13:21:37;15.30;99.90
13697;DHT22;6920;50.080;8.226;2023-11-19T13:24:07;15.20;99.90
13697;DHT22;6920;50.080;8.226;2023-11-19T13:26:38;15.10;99.90
13697;DHT22;6920;50.080;8.226;2023-11-19T13:29:05;14.80;99.90
13697;DHT22;6920;50.080;8.226;2023-11-19T13:31:33;14.70;99.90
13697;DHT22;6920;50.080;8.226;2023-11-19T13:34:16;14.60;99.90
13697;DHT22;6920;50.080;8.226;2023-11-19T13:36:49;14.50;99.90
13697;DHT22;6920;50.080;8.226;2023-11-19T13:41:52;14.50;99.90
13697;DHT22;6920;50.080;8.226;2023-11-19T13:44:20;14.50;99.90
13697;DHT22;6920;50.080;8.226;2023-11-19T13:46:47;14.40;99.90
13697;DHT22;6920;50.080;8.226;2023-11-19T13:49:16;14.50;99.90
13697;DHT22;6920;50.080;8.226;2023-11-19T13:51:46;14.50;99.90
13697;DHT22;6920;50.080;8.226;2023-11-19T13:54:14;14.40;99.90
13697;DHT22;6920;50.080;8.226;2023-11-19T13:56:43;14.40;99.90
13697;DHT22;6920;50.080;8.226;2023-11-19T13:59:20;14.40;99.90
13697;DHT22;6920;50.080;8.226;2023-11-19T14:01:49;14.40;99.90
13697;DHT22;6920;50.080;8.226;2023-11-19T14:04:19;14.40;99.90
13697;DHT22;6920;50.080;8.226;2023-11-19T14:06:51;14.40;99.90
13697;DHT22;6920;50.080;8.226;2023-11-19T14:11:48;14.40;99.90
13697;DHT22;6920;50.080;8.226;2023-11-19T14:14:17;14.30;99.90
13697;DHT22;6920;50.080;8.226;2023-11-19T14:16:45;14.20;99.90
13697;DHT22;6920;50.080;8.226;2023-11-19T14:19:12;14.20;99.90
13697;DHT22;6920;50.080;8.226;2023-11-19T14:21:42;14.10;99.90
13697;DHT22;6920;50.080;8.226;2023-11-19T14:26:38;14.00;99.90
13697;DHT22;6920;50.080;8.226;2023-11-19T14:29:05;14.00;99.90
13697;DHT22;6920;50.080;8.226;2023-11-19T14:31:33;13.90;99.90
13697;DHT22;6920;50.080;8.226;2023-11-19T14:34:01;14.00;99.90
13697;DHT22;6920;50.080;8.226;2023-11-19T14:36:29;13.90;99.90
13697;DHT22;6920;50.080;8.226;2023-11-19T14:39:24;13.90;99.90
13697;DHT22;6920;50.080;8.226;2023-11-19T14:42:07;13.90;99.90
13697;DHT22;6920;50.080;8.226;2023-11-19T14:44:44;13.90;99.90
13697;DHT22;6920;50.080;8.226;2023-11-19T14:47:17;13.90;99.90
13697;DHT22;6920;50.080;8.226;2023-11-19T14:49:45;13.80;99.90
13697;DHT22;6920;50.080;8.226;2023-11-19T14:52:15;13.80;99.90
13697;DHT22;6920;50.080;8.226;2023-11-19T14:54:54;13.80;99.90
13697;DHT22;6920;50.080;8.226;2023-11-19T14:57:32;13.80;99.90
13697;DHT22;6920;50.080;8.226;2023-11-19T15:00:02;13.80;99.90
13697;DHT22;6920;50.080;8.226;2023-11-19T15:02:40;13.70;99.90
13697;DHT22;6920;50.080;8.226;2023-11-19T15:05:11;13.70;99.90
13697;DHT22;6920;50.080;8.226;2023-11-19T15:07:41;13.70;99.90
13697;DHT22;6920;50.080;8.226;2023-11-19T15:10:14;13.60;99.90
13697;DHT22;6920;50.080;8.226;2023-11-19T15:12:44;13.60;99.90
13697;DHT22;6920;50.080;8.226;2023-11-19T15:15:14;13.50;99.90
13697;DHT22;6920;50.080;8.226;2023-11-19T15:17:43;13.60;99.90
13697;DHT22;6920;50.080;8.226;2023-11-19T15:20:15;13.50;99.90
13697;DHT22;6920;50.080;8.226;2023-11-19T15:22:46;13.50;99.90
13697;DHT22;6920;50.080;8.226;2023-11-19T15:25:19;13.40;99.90
13697;DHT22;6920;50.080;8.226;2023-11-19T15:30:15;13.40;99.90
13697;DHT22;6920;50.080;8.226;2023-11-19T15:32:45;13.40;99.90
13697;DHT22;6920;50.080;8.226;2023-11-19T15:35:17;13.30;99.90
13697;DHT22;6920;50.080;8.226;2023-11-19T15:37:49;13.30;99.90
13697;DHT22;6920;50.080;8.226;2023-11-19T15:40:26;13.30;99.90
13697;DHT22;6920;50.080;8.226;2023-11-19T15:43:12;13.20;99.90
13697;DHT22;6920;50.080;8.226;2023-11-19T15:45:46;13.10;99.90
13697;DHT22;6920;50.080;8.226;2023-11-19T15:48:14;13.10;99.90
13697;DHT22;6920;50.080;8.226;2023-11-19T15:50:47;13.00;99.90
13697;DHT22;6920;50.080;8.226;2023-11-19T15:53:18;13.00;99.90
13697;DHT22;6920;50.080;8.226;2023-11-19T15:55:50;13.00;99.90
13697;DHT22;6920;50.080;8.226;2023-11-19T15:58:20;12.80;99.90
13697;DHT22;6920;50.080;8.226;2023-11-19T16:00:58;12.90;99.90
13697;DHT22;6920;50.080;8.226;2023-11-19T16:03:27;12.90;99.90
13697;DHT22;6920;50.080;8.226;2023-11-19T16:06:01;12.90;99.90
13697;DHT22;6920;50.080;8.226;2023-11-19T16:08:30;12.90;99.90
13697;DHT22;6920;50.080;8.226;2023-11-19T16:11:02;12.80;99.90
13697;DHT22;6920;50.080;8.226;2023-11-19T16:13:36;12.80;99.90
13697;DHT22;6920;50.080;8.226;2023-11-19T16:16:05;12.60;99.90
13697;DHT22;6920;50.080;8.226;2023-11-19T16:18:37;12.40;99.90
13697;DHT22;6920;50.080;8.226;2023-11-19T16:21:09;12.40;99.90
13697;DHT22;6920;50.080;8.226;2023-11-19T16:23:38;12.50;99.90
13697;DHT22;6920;50.080;8.226;2023-11-19T16:26:13;12.60;99.90
13697;DHT22;6920;50.080;8.226;2023-11-19T16:28:41;12.70;99.90
13697;DHT22;6920;50.080;8.226;2023-11-19T16:31:11;12.60;99.90
13697;DHT22;6920;50.080;8.226;2023-11-19T16:33:50;12.60;99.90
13697;DHT22;6920;50.080;8.226;2023-11-19T16:36:18;12.60;99.90
13697;DHT22;6920;50.080;8.226;2023-11-19T16:38:49;12.60;99.90
13697;DHT22;6920;50.080;8.226;2023-11-19T16:41:22;12.70;99.90
13697;DHT22;6920;50.080;8.226;2023-11-19T16:43:52;12.80;99.90
13697;DHT22;6920;50.080;8.226;2023-11-19T16:46:30;12.90;99.90
13697;DHT22;6920;50.080;8.226;2023-11-19T16:49:00;12.80;99.90
13697;DHT22;6920;50.080;8.226;2023-11-19T16:51:32;12.90;99.90
13697;DHT22;6920;50.080;8.226;2023-11-19T16:54:05;12.90;99.90
13697;DHT22;6920;50.080;8.226;2023-11-19T16:56:41;12.80;99.90
13697;DHT22;6920;50.080;8.226;2023-11-19T16:59:10;12.80;99.90
13697;DHT22;6920;50.080;8.226;2023-11-19T17:01:44;12.70;99.90
13697;DHT22;6920;50.080;8.226;2023-11-19T17:04:19;12.70;99.90
13697;DHT22;6920;50.080;8.226;2023-11-19T17:06:49;12.60;99.90
13697;DHT22;6920;50.080;8.226;2023-11-19T17:09:18;12.60;99.90
13697;DHT22;6920;50.080;8.226;2023-11-19T17:11:48;12.60;99.90
13697;DHT22;6920;50.080;8.226;2023-11-19T17:14:20;12.50;99.90
13697;DHT22;6920;50.080;8.226;2023-11-19T17:16:49;12.50;99.90
13697;DHT22;6920;50.080;8.226;2023-11-19T17:19:21;12.50;99.90
13697;DHT22;6920;50.080;8.226;2023-11-19T17:21:52;12.40;99.90
13697;DHT22;6920;50.080;8.226;2023-11-19T17:24:25;12.40;99.90
13697;DHT22;6920;50.080;8.226;2023-11-19T17:27:01;12.40;99.90
13697;DHT22;6920;50.080;8.226;2023-11-19T17:29:31;12.30;99.90
13697;DHT22;6920;50.080;8.226;2023-11-19T17:31:59;12.20;99.90
13697;DHT22;6920;50.080;8.226;2023-11-19T17:34:30;12.20;99.90
13697;DHT22;6920;50.080;8.226;2023-11-19T17:36:59;12.10;99.90
13697;DHT22;6920;50.080;8.226;2023-11-19T17:39:32;12.00;99.90
13697;DHT22;6920;50.080;8.226;2023-11-19T17:42:03;12.00;99.90
13697;DHT22;6920;50.080;8.226;2023-11-19T17:44:32;12.00;99.90
13697;DHT22;6920;50.080;8.226;2023-11-19T17:47:02;12.00;99.90
13697;DHT22;6920;50.080;8.226;2023-11-19T17:49:31;11.90;99.90
13697;DHT22;6920;50.080;8.226;2023-11-19T17:52:00;12.00;99.90
13697;DHT22;6920;50.080;8.226;2023-11-19T17:54:27;11.90;99.90
13697;DHT22;6920;50.080;8.226;2023-11-19T17:56:55;11.90;99.90
13697;DHT22;6920;50.080;8.226;2023-11-19T17:59:28;11.80;99.90
13697;DHT22;6920;50.080;8.226;2023-11-19T18:01:57;11.80;99.90
13697;DHT22;6920;50.080;8.226;2023-11-19T18:04:32;11.70;99.90
13697;DHT22;6920;50.080;8.226;2023-11-19T18:07:04;11.70;99.90
13697;DHT22;6920;50.080;8.226;2023-11-19T18:09:33;11.80;99.90
13697;DHT22;6920;50.080;8.226;2023-11-19T18:12:04;11.80;99.90
13697;DHT22;6920;50.080;8.226;2023-11-19T18:14:37;11.80;99.90
13697;DHT22;6920;50.080;8.226;2023-11-19T18:17:06;11.80;99.90
13697;DHT22;6920;50.080;8.226;2023-11-19T18:19:38;11.80;99.90
13697;DHT22;6920;50.080;8.226;2023-11-19T18:22:13;11.80;99.90
13697;DHT22;6920;50.080;8.226;2023-11-19T18:24:50;11.70;99.90
13697;DHT22;6920;50.080;8.226;2023-11-19T18:27:20;11.70;99.90
13697;DHT22;6920;50.080;8.226;2023-11-19T18:29:51;8.30;99.90
13697;DHT22;6920;50.080;8.226;2023-11-19T18:32:20;11.60;99.90
13697;DHT22;6920;50.080;8.226;2023-11-19T18:34:48;11.60;99.90
13697;DHT22;6920;50.080;8.226;2023-11-19T18:37:15;11.50;99.90
13697;DHT22;6920;50.080;8.226;2023-11-19T18:39:43;11.50;99.90
13697;DHT22;6920;50.080;8.226;2023-11-19T18:42:19;11.40;99.90
13697;DHT22;6920;50.080;8.226;2023-11-19T18:44:46;11.40;99.90
13697;DHT22;6920;50.080;8.226;2023-11-19T18:47:18;11.40;99.90
13697;DHT22;6920;50.080;8.226;2023-11-19T18:49:45;11.40;99.90
13697;DHT22;6920;50.080;8.226;2023-11-19T18:52:16;11.40;99.90
13697;DHT22;6920;50.080;8.226;2023-11-19T18:54:46;11.40;99.90
13697;DHT22;6920;50.080;8.226;2023-11-19T18:57:16;11.40;99.90
13697;DHT22;6920;50.080;8.226;2023-11-19T18:59:46;11.40;99.90
13697;DHT22;6920;50.080;8.226;2023-11-19T19:02:20;11.50;99.90
13697;DHT22;6920;50.080;8.226;2023-11-19T19:04:48;11.50;99.90
13697;DHT22;6920;50.080;8.226;2023-11-19T19:07:26;11.60;99.90
13697;DHT22;6920;50.080;8.226;2023-11-19T19:09:58;11.60;99.90
13697;DHT22;6920;50.080;8.226;2023-11-19T19:12:28;11.70;99.90
13697;DHT22;6920;50.080;8.226;2023-11-19T19:14:59;11.80;99.90
13697;DHT22;6920;50.080;8.226;2023-11-19T19:17:31;11.80;99.90
13697;DHT22;6920;50.080;8.226;2023-11-19T19:20:00;11.80;99.90
13697;DHT22;6920;50.080;8.226;2023-11-19T19:22:30;11.80;99.90
13697;DHT22;6920;50.080;8.226;2023-11-19T19:25:00;11.80;99.90
13697;DHT22;6920;50.080;8.226;2023-11-19T19:27:28;11.80;99.90
13697;DHT22;6920;50.080;8.226;2023-11-19T19:29:57;11.80;99.90
13697;DHT22;6920;50.080;8.226;2023-11-19T19:32:29;11.80;99.90
13697;DHT22;6920;50.080;8.226;2023-11-19T19:35:03;11.80;99.90
13697;DHT22;6920;50.080;8.226;2023-11-19T19:37:32;11.80;99.90
13697;DHT22;6920;50.080;8.226;2023-11-19T19:40:03;11.80;99.90
13697;DHT22;6920;50.080;8.226;2023-11-19T19:42:34;11.80;99.90
13697;DHT22;6920;50.080;8.226;2023-11-19T19:45:09;11.80;99.90
13697;DHT22;6920;50.080;8.226;2023-11-19T19:47:53;11.90;99.90
13697;DHT22;6920;50.080;8.226;2023-11-19T19:50:22;12.00;99.90
13697;DHT22;6920;50.080;8.226;2023-11-19T19:53:03;12.00;99.90
13697;DHT22;6920;50.080;8.226;2023-11-19T19:55:33;11.80;99.90
13697;DHT22;6920;50.080;8.226;2023-11-19T19:58:01;12.00;99.90
13697;DHT22;6920;50.080;8.226;2023-11-19T20:00:31;11.90;99.90
13697;DHT22;6920;50.080;8.226;2023-11-19T20:03:02;11.90;99.90
13697;DHT22;6920;50.080;8.226;2023-11-19T20:05:33;11.90;99.90
13697;DHT22;6920;50.080;8.226;2023-11-19T20:08:01;12.00;99.90
13697;DHT22;6920;50.080;8.226;2023-11-19T20:10:35;12.00;99.90
13697;DHT22;6920;50.080;8.226;2023-11-19T20:13:02;12.00;99.90
13697;DHT22;6920;50.080;8.226;2023-11-19T20:15:38;12.00;99.90
13697;DHT22;6920;50.080;8.226;2023-11-19T20:20:53;12.00;99.90
13697;DHT22;6920;50.080;8.226;2023-11-19T20:23:25;12.00;99.90
13697;DHT22;6920;50.080;8.226;2023-11-19T20:25:57;12.00;99.90
13697;DHT22;6920;50.080;8.226;2023-11-19T20:28:28;12.00;99.90
13697;DHT22;6920;50.080;8.226;2023-11-19T20:30:59;12.00;99.90
13697;DHT22;6920;50.080;8.226;2023-11-19T20:33:41;11.90;99.90
13697;DHT22;6920;50.080;8.226;2023-11-19T20:36:11;12.00;99.90
13697;DHT22;6920;50.080;8.226;2023-11-19T20:41:11;11.90;99.90
13697;DHT22;6920;50.080;8.226;2023-11-19T20:43:43;11.90;99.90
13697;DHT22;6920;50.080;8.226;2023-11-19T20:46:13;12.00;99.90
13697;DHT22;6920;50.080;8.226;2023-11-19T20:48:41;11.90;99.90
13697;DHT22;6920;50.080;8.226;2023-11-19T20:51:19;11.90;99.90
13697;DHT22;6920;50.080;8.226;2023-11-19T20:53:48;12.00;99.90
13697;DHT22;6920;50.080;8.226;2023-11-19T20:56:18;12.00;99.90
13697;DHT22;6920;50.080;8.226;2023-11-19T20:58:46;12.00;99.90
13697;DHT22;6920;50.080;8.226;2023-11-19T21:01:17;12.00;99.90
13697;DHT22;6920;50.080;8.226;2023-11-19T21:03:47;11.90;99.90
13697;DHT22;6920;50.080;8.226;2023-11-19T21:06:24;12.00;99.90
13697;DHT22;6920;50.080;8.226;2023-11-19T21:08:51;12.00;99.90
13697;DHT22;6920;50.080;8.226;2023-11-19T21:11:18;12.00;99.90
13697;DHT22;6920;50.080;8.226;2023-11-19T21:13:47;12.00;99.90
13697;DHT22;6920;50.080;8.226;2023-11-19T21:16:17;12.00;99.90
13697;DHT22;6920;50.080;8.226;2023-11-19T21:18:46;12.00;99.90
13697;DHT22;6920;50.080;8.226;2023-11-19T21:23:44;12.00;99.90
13697;DHT22;6920;50.080;8.226;2023-11-19T21:26:12;11.90;99.90
13697;DHT22;6920;50.080;8.226;2023-11-19T21:28:42;12.10;99.90
13697;DHT22;6920;50.080;8.226;2023-11-19T21:31:10;12.00;99.90
13697;DHT22;6920;50.080;8.226;2023-11-19T21:33:38;12.00;99.90
13697;DHT22;6920;50.080;8.226;2023-11-19T21:36:08;12.00;99.90
13697;DHT22;6920;50.080;8.226;2023-11-19T21:38:39;12.10;99.90
13697;DHT22;6920;50.080;8.226;2023-11-19T21:41:09;12.10;99.90
13697;DHT22;6920;50.080;8.226;2023-11-19T21:43:42;12.10;99.90
13697;DHT22;6920;50.080;8.226;2023-11-19T21:46:23;12.10;99.90
13697;DHT22;6920;50.080;8.226;2023-11-19T21:48:52;12.10;99.90
13697;DHT22;6920;50.080;8.226;2023-11-19T21:51:22;12.10;99.90
13697;DHT22;6920;50.080;8.226;2023-11-19T21:53:55;12.10;99.90
13697;DHT22;6920;50.080;8.226;2023-11-19T21:56:27;12.10;99.90
13697;DHT22;6920;50.080;8.226;2023-11-19T21:58:57;12.10;99.90
13697;DHT22;6920;50.080;8.226;2023-11-19T22:01:30;12.00;99.90
13697;DHT22;6920;50.080;8.226;2023-11-19T22:03:59;12.10;99.90
13697;DHT22;6920;50.080;8.226;2023-11-19T22:06:30;12.10;99.90
13697;DHT22;6920;50.080;8.226;2023-11-19T22:08:57;12.10;99.90
13697;DHT22;6920;50.080;8.226;2023-11-19T22:11:24;12.10;99.90
13697;DHT22;6920;50.080;8.226;2023-11-19T22:14:07;12.10;99.90
13697;DHT22;6920;50.080;8.226;2023-11-19T22:16:45;12.20;99.90
13697;DHT22;6920;50.080;8.226;2023-11-19T22:19:26;12.20;99.90
13697;DHT22;6920;50.080;8.226;2023-11-19T22:22:22;12.20;99.90
13697;DHT22;6920;50.080;8.226;2023-11-19T22:24:50;12.10;99.90
13697;DHT22;6920;50.080;8.226;2023-11-19T22:27:18;12.20;99.90
13697;DHT22;6920;50.080;8.226;2023-11-19T22:29:48;12.20;99.90
13697;DHT22;6920;50.080;8.226;2023-11-19T22:32:21;12.10;99.90
13697;DHT22;6920;50.080;8.226;2023-11-19T22:34:52;12.20;99.90
13697;DHT22;6920;50.080;8.226;2023-11-19T22:37:24;12.20;99.90
13697;DHT22;6920;50.080;8.226;2023-11-19T22:39:54;12.20;99.90
13697;DHT22;6920;50.080;8.226;2023-11-19T22:42:25;12.20;99.90
13697;DHT22;6920;50.080;8.226;2023-11-19T22:44:59;12.20;99.90
13697;DHT22;6920;50.080;8.226;2023-11-19T22:47:42;12.20;99.90
13697;DHT22;6920;50.080;8.226;2023-11-19T22:50:12;12.20;99.90
13697;DHT22;6920;50.080;8.226;2023-11-19T22:52:45;12.20;99.90
13697;DHT22;6920;50.080;8.226;2023-11-19T22:55:14;12.20;99.90
13697;DHT22;6920;50.080;8.226;2023-11-19T22:57:41;12.20;99.90
13697;DHT22;6920;50.080;8.226;2023-11-19T23:00:13;12.20;99.90
13697;DHT22;6920;50.080;8.226;2023-11-19T23:02:54;12.20;99.90